<?xml version='1.0' encoding='UTF-8'?><gpx version="1.1" creator="JPX - https://github.com/jenetics/jpx" xmlns="http://www.topografix.com/GPX/1/1"><trk><trkseg><trkpt lat="36.7857241" lon="14.5259017"><ele>7.0</ele><time>2026-03-23T16:47:14.989Z</time></trkpt><trkpt lat="36.785719" lon="14.525988"><ele>7.0</ele><time>2026-03-23T16:47:21.991Z</time></trkpt><trkpt lat="36.7857531" lon="14.5260627"><ele>7.0</ele><time>2026-03-23T16:47:32.989Z</time></trkpt><trkpt lat="36.7857453" lon="14.5261472"><ele>7.0</ele><time>2026-03-23T16:47:39.99Z</time></trkpt><trkpt lat="36.7857423" lon="14.5262282"><ele>7.0</ele><time>2026-03-23T16:47:46.991Z</time></trkpt><trkpt lat="36.7857382" lon="14.5263154"><ele>7.0</ele><time>2026-03-23T16:47:56.036Z</time></trkpt><trkpt lat="36.7857481" lon="14.5264048"><ele>7.0</ele><time>2026-03-23T16:48:02.99Z</time></trkpt><trkpt lat="36.785741" lon="14.5264865"><ele>7.0</ele><time>2026-03-23T16:48:09.99Z</time></trkpt><trkpt lat="36.7857531" lon="14.5265681"><ele>7.0</ele><time>2026-03-23T16:48:17.991Z</time></trkpt><trkpt lat="36.7857594" lon="14.5266531"><ele>7.0</ele><time>2026-03-23T16:48:24.991Z</time></trkpt><trkpt lat="36.7857542" lon="14.5267406"><ele>7.0</ele><time>2026-03-23T16:48:30.991Z</time></trkpt><trkpt lat="36.7857556" lon="14.5268272"><ele>7.0</ele><time>2026-03-23T16:48:38.961Z</time></trkpt><trkpt lat="36.7857611" lon="14.5269159"><ele>7.0</ele><time>2026-03-23T16:48:46.991Z</time></trkpt><trkpt lat="36.7857495" lon="14.5270034"><ele>7.0</ele><time>2026-03-23T16:48:55.99Z</time></trkpt><trkpt lat="36.7857477" lon="14.5270922"><ele>7.142857142857142</ele><time>2026-03-23T16:49:03.075Z</time></trkpt><trkpt lat="36.7857529" lon="14.5271748"><ele>7.285714285714286</ele><time>2026-03-23T16:49:10.044Z</time></trkpt><trkpt lat="36.785755" lon="14.5272683"><ele>7.428571428571429</ele><time>2026-03-23T16:49:16.991Z</time></trkpt><trkpt lat="36.7857595" lon="14.5273539"><ele>7.571428571428571</ele><time>2026-03-23T16:49:23.903Z</time></trkpt><trkpt lat="36.7857894" lon="14.5274303"><ele>7.7142857142857135</ele><time>2026-03-23T16:49:30.991Z</time></trkpt><trkpt lat="36.7857811" lon="14.5275132"><ele>7.857142857142857</ele><time>2026-03-23T16:49:37.991Z</time></trkpt><trkpt lat="36.7857713" lon="14.527602"><ele>8.0</ele><time>2026-03-23T16:49:44.991Z</time></trkpt><trkpt lat="36.7857712" lon="14.5276872"><ele>8.0</ele><time>2026-03-23T16:49:51.925Z</time></trkpt><trkpt lat="36.7857654" lon="14.5277773"><ele>7.999999999999999</ele><time>2026-03-23T16:49:58.966Z</time></trkpt><trkpt lat="36.7857451" lon="14.5278608"><ele>8.0</ele><time>2026-03-23T16:50:04.9Z</time></trkpt><trkpt lat="36.7857149" lon="14.527945"><ele>8.0</ele><time>2026-03-23T16:50:10.992Z</time></trkpt><trkpt lat="36.7856793" lon="14.5280149"><ele>7.999999999999999</ele><time>2026-03-23T16:50:18.99Z</time></trkpt><trkpt lat="36.7856432" lon="14.5280836"><ele>8.0</ele><time>2026-03-23T16:50:26.865Z</time></trkpt><trkpt lat="36.7855904" lon="14.5281374"><ele>8.0</ele><time>2026-03-23T16:50:33.991Z</time></trkpt><trkpt lat="36.7855328" lon="14.5281785"><ele>8.428571428571429</ele><time>2026-03-23T16:50:40.99Z</time></trkpt><trkpt lat="36.7854667" lon="14.5282163"><ele>8.857142857142856</ele><time>2026-03-23T16:50:47.986Z</time></trkpt><trkpt lat="36.7853981" lon="14.5282092"><ele>9.285714285714285</ele><time>2026-03-23T16:50:56.989Z</time></trkpt><trkpt lat="36.7853283" lon="14.5282318"><ele>9.714285714285714</ele><time>2026-03-23T16:51:03.99Z</time></trkpt><trkpt lat="36.785275" lon="14.5282873"><ele>10.142857142857142</ele><time>2026-03-23T16:51:09.99Z</time></trkpt><trkpt lat="36.7852167" lon="14.528318"><ele>10.571428571428571</ele><time>2026-03-23T16:51:16.8Z</time></trkpt><trkpt lat="36.7851552" lon="14.5282761"><ele>11.0</ele><time>2026-03-23T16:51:26.99Z</time></trkpt><trkpt lat="36.7851112" lon="14.5283345"><ele>11.0</ele><time>2026-03-23T16:51:35.991Z</time></trkpt><trkpt lat="36.7850412" lon="14.5283409"><ele>11.0</ele><time>2026-03-23T16:51:51.07Z</time></trkpt><trkpt lat="36.7849874" lon="14.5283888"><ele>11.0</ele><time>2026-03-23T16:51:56.903Z</time></trkpt><trkpt lat="36.7849248" lon="14.5284054"><ele>11.0</ele><time>2026-03-23T16:52:03.927Z</time></trkpt><trkpt lat="36.7848628" lon="14.5284297"><ele>11.0</ele><time>2026-03-23T16:52:10.936Z</time></trkpt><trkpt lat="36.7847977" lon="14.5284343"><ele>11.0</ele><time>2026-03-23T16:52:20.05Z</time></trkpt><trkpt lat="36.7847336" lon="14.5284361"><ele>11.0</ele><time>2026-03-23T16:52:29.062Z</time></trkpt><trkpt lat="36.7846789" lon="14.5284779"><ele>11.0</ele><time>2026-03-23T16:52:36.923Z</time></trkpt><trkpt lat="36.7846111" lon="14.5284922"><ele>11.0</ele><time>2026-03-23T16:52:43.047Z</time></trkpt><trkpt lat="36.7845422" lon="14.5285197"><ele>11.0</ele><time>2026-03-23T16:52:51.005Z</time></trkpt><trkpt lat="36.7844849" lon="14.5285594"><ele>11.0</ele><time>2026-03-23T16:52:57.08Z</time></trkpt><trkpt lat="36.7844239" lon="14.5285832"><ele>11.0</ele><time>2026-03-23T16:53:03.99Z</time></trkpt><trkpt lat="36.7843547" lon="14.52861"><ele>11.0</ele><time>2026-03-23T16:53:11.044Z</time></trkpt><trkpt lat="36.784284" lon="14.5286232"><ele>11.0</ele><time>2026-03-23T16:53:18.991Z</time></trkpt><trkpt lat="36.7842129" lon="14.5286395"><ele>10.857142857142858</ele><time>2026-03-23T16:53:27.068Z</time></trkpt><trkpt lat="36.7841455" lon="14.5286734"><ele>10.714285714285714</ele><time>2026-03-23T16:53:34.899Z</time></trkpt><trkpt lat="36.7840851" lon="14.52871"><ele>10.571428571428571</ele><time>2026-03-23T16:53:42.066Z</time></trkpt><trkpt lat="36.7840189" lon="14.5287139"><ele>10.428571428571429</ele><time>2026-03-23T16:53:50.064Z</time></trkpt><trkpt lat="36.7839557" lon="14.5287353"><ele>10.285714285714286</ele><time>2026-03-23T16:53:57.036Z</time></trkpt><trkpt lat="36.7838879" lon="14.5287492"><ele>10.142857142857142</ele><time>2026-03-23T16:54:05.071Z</time></trkpt><trkpt lat="36.7838243" lon="14.5287658"><ele>10.0</ele><time>2026-03-23T16:54:12.99Z</time></trkpt><trkpt lat="36.7837583" lon="14.5287897"><ele>10.0</ele><time>2026-03-23T16:54:19.99Z</time></trkpt><trkpt lat="36.7836931" lon="14.5288249"><ele>10.0</ele><time>2026-03-23T16:54:27.99Z</time></trkpt><trkpt lat="36.7836272" lon="14.5288462"><ele>10.0</ele><time>2026-03-23T16:54:35.99Z</time></trkpt><trkpt lat="36.7835614" lon="14.528872"><ele>10.0</ele><time>2026-03-23T16:54:42.99Z</time></trkpt><trkpt lat="36.7834969" lon="14.5288979"><ele>10.0</ele><time>2026-03-23T16:54:50.99Z</time></trkpt><trkpt lat="36.7834276" lon="14.5289231"><ele>10.0</ele><time>2026-03-23T16:54:58.991Z</time></trkpt><trkpt lat="36.7833674" lon="14.5289476"><ele>10.0</ele><time>2026-03-23T16:55:05.991Z</time></trkpt><trkpt lat="36.7833053" lon="14.5289705"><ele>10.0</ele><time>2026-03-23T16:55:12.989Z</time></trkpt><trkpt lat="36.7832378" lon="14.5289957"><ele>10.0</ele><time>2026-03-23T16:55:20.99Z</time></trkpt><trkpt lat="36.7831735" lon="14.5290153"><ele>10.0</ele><time>2026-03-23T16:55:28.002Z</time></trkpt><trkpt lat="36.7831086" lon="14.529015"><ele>10.0</ele><time>2026-03-23T16:55:34.991Z</time></trkpt><trkpt lat="36.7830412" lon="14.5290397"><ele>10.0</ele><time>2026-03-23T16:55:42.99Z</time></trkpt><trkpt lat="36.78298" lon="14.5290614"><ele>10.0</ele><time>2026-03-23T16:55:49.99Z</time></trkpt><trkpt lat="36.7829161" lon="14.5290842"><ele>10.0</ele><time>2026-03-23T16:55:56.99Z</time></trkpt><trkpt lat="36.7828491" lon="14.5291144"><ele>10.0</ele><time>2026-03-23T16:56:03.989Z</time></trkpt><trkpt lat="36.7827795" lon="14.5291296"><ele>10.0</ele><time>2026-03-23T16:56:12.945Z</time></trkpt><trkpt lat="36.7827176" lon="14.529156"><ele>10.0</ele><time>2026-03-23T16:56:20.99Z</time></trkpt><trkpt lat="36.7826548" lon="14.5291394"><ele>10.0</ele><time>2026-03-23T16:56:55.991Z</time></trkpt><trkpt lat="36.782602" lon="14.5291855"><ele>10.0</ele><time>2026-03-23T16:57:01.991Z</time></trkpt><trkpt lat="36.7825379" lon="14.5292146"><ele>10.0</ele><time>2026-03-23T16:57:07.991Z</time></trkpt><trkpt lat="36.7824745" lon="14.5292547"><ele>10.0</ele><time>2026-03-23T16:57:13.991Z</time></trkpt><trkpt lat="36.782418" lon="14.529312"><ele>10.0</ele><time>2026-03-23T16:57:21.042Z</time></trkpt><trkpt lat="36.7823621" lon="14.5293526"><ele>10.0</ele><time>2026-03-23T16:57:26.989Z</time></trkpt><trkpt lat="36.7823062" lon="14.5293945"><ele>10.0</ele><time>2026-03-23T16:57:33.074Z</time></trkpt><trkpt lat="36.7822398" lon="14.5294405"><ele>10.0</ele><time>2026-03-23T16:57:39.99Z</time></trkpt><trkpt lat="36.78219" lon="14.52949"><ele>10.0</ele><time>2026-03-23T16:57:45.985Z</time></trkpt><trkpt lat="36.7821301" lon="14.5295371"><ele>10.0</ele><time>2026-03-23T16:57:52.904Z</time></trkpt><trkpt lat="36.7820713" lon="14.5295775"><ele>10.0</ele><time>2026-03-23T16:58:00.99Z</time></trkpt><trkpt lat="36.7820152" lon="14.5296309"><ele>10.0</ele><time>2026-03-23T16:58:08.01Z</time></trkpt><trkpt lat="36.7819653" lon="14.5296847"><ele>10.0</ele><time>2026-03-23T16:58:13.99Z</time></trkpt><trkpt lat="36.7819081" lon="14.5297273"><ele>10.0</ele><time>2026-03-23T16:58:20.991Z</time></trkpt><trkpt lat="36.7818584" lon="14.5297806"><ele>10.0</ele><time>2026-03-23T16:58:26.99Z</time></trkpt><trkpt lat="36.7818083" lon="14.5298388"><ele>10.0</ele><time>2026-03-23T16:58:33.051Z</time></trkpt><trkpt lat="36.7817629" lon="14.5298988"><ele>10.0</ele><time>2026-03-23T16:58:40.057Z</time></trkpt><trkpt lat="36.7817125" lon="14.5299613"><ele>10.0</ele><time>2026-03-23T16:58:46.98Z</time></trkpt><trkpt lat="36.7816611" lon="14.5300174"><ele>9.857142857142858</ele><time>2026-03-23T16:58:53.828Z</time></trkpt><trkpt lat="36.7816186" lon="14.5300789"><ele>9.714285714285715</ele><time>2026-03-23T16:59:00.936Z</time></trkpt><trkpt lat="36.7815813" lon="14.5301511"><ele>9.571428571428573</ele><time>2026-03-23T16:59:07.99Z</time></trkpt><trkpt lat="36.7815364" lon="14.5302208"><ele>9.428571428571429</ele><time>2026-03-23T16:59:14.99Z</time></trkpt><trkpt lat="36.7814961" lon="14.5302953"><ele>9.285714285714286</ele><time>2026-03-23T16:59:21.991Z</time></trkpt><trkpt lat="36.7814555" lon="14.5303575"><ele>9.142857142857144</ele><time>2026-03-23T16:59:28.078Z</time></trkpt><trkpt lat="36.7814082" lon="14.5304245"><ele>9.0</ele><time>2026-03-23T16:59:35.048Z</time></trkpt><trkpt lat="36.7813513" lon="14.5304696"><ele>9.000000000000002</ele><time>2026-03-23T16:59:40.99Z</time></trkpt><trkpt lat="36.781304" lon="14.5305354"><ele>9.0</ele><time>2026-03-23T16:59:49.045Z</time></trkpt><trkpt lat="36.7812645" lon="14.5306116"><ele>9.0</ele><time>2026-03-23T16:59:55.989Z</time></trkpt><trkpt lat="36.781222" lon="14.5306751"><ele>9.0</ele><time>2026-03-23T17:00:02.895Z</time></trkpt><trkpt lat="36.7811768" lon="14.5307313"><ele>9.0</ele><time>2026-03-23T17:00:09.99Z</time></trkpt><trkpt lat="36.7811451" lon="14.5308056"><ele>9.000000000000002</ele><time>2026-03-23T17:00:16.991Z</time></trkpt><trkpt lat="36.7811027" lon="14.5308671"><ele>9.0</ele><time>2026-03-23T17:00:22.99Z</time></trkpt><trkpt lat="36.7810471" lon="14.5309206"><ele>9.000000000000002</ele><time>2026-03-23T17:00:30.99Z</time></trkpt><trkpt lat="36.7810177" lon="14.5310022"><ele>9.0</ele><time>2026-03-23T17:00:38.99Z</time></trkpt><trkpt lat="36.7809788" lon="14.5310683"><ele>9.0</ele><time>2026-03-23T17:00:44.989Z</time></trkpt><trkpt lat="36.7809406" lon="14.5311337"><ele>9.0</ele><time>2026-03-23T17:00:58.99Z</time></trkpt><trkpt lat="36.7809043" lon="14.5311987"><ele>9.0</ele><time>2026-03-23T17:01:04.947Z</time></trkpt><trkpt lat="36.7808666" lon="14.5312696"><ele>9.000000000000002</ele><time>2026-03-23T17:01:10.99Z</time></trkpt><trkpt lat="36.7808351" lon="14.5313447"><ele>9.0</ele><time>2026-03-23T17:01:18.055Z</time></trkpt><trkpt lat="36.7808096" lon="14.5314254"><ele>8.428571428571429</ele><time>2026-03-23T17:01:25.072Z</time></trkpt><trkpt lat="36.7807787" lon="14.5315027"><ele>7.857142857142858</ele><time>2026-03-23T17:01:32.045Z</time></trkpt><trkpt lat="36.7807532" lon="14.5315763"><ele>7.2857142857142865</ele><time>2026-03-23T17:01:38.938Z</time></trkpt><trkpt lat="36.7807292" lon="14.531657"><ele>6.714285714285715</ele><time>2026-03-23T17:01:45.989Z</time></trkpt><trkpt lat="36.7807178" lon="14.5317364"><ele>6.142857142857143</ele><time>2026-03-23T17:01:52.955Z</time></trkpt><trkpt lat="36.7807129" lon="14.5318169"><ele>5.571428571428571</ele><time>2026-03-23T17:01:59.99Z</time></trkpt><trkpt lat="36.7806989" lon="14.531898"><ele>5.0</ele><time>2026-03-23T17:02:07.989Z</time></trkpt><trkpt lat="36.7806632" lon="14.5319668"><ele>5.0</ele><time>2026-03-23T17:02:13.991Z</time></trkpt><trkpt lat="36.7806274" lon="14.532039"><ele>5.0</ele><time>2026-03-23T17:02:21.99Z</time></trkpt><trkpt lat="36.7806235" lon="14.5321265"><ele>5.0</ele><time>2026-03-23T17:02:27.99Z</time></trkpt><trkpt lat="36.7806343" lon="14.532208"><ele>5.0</ele><time>2026-03-23T17:02:33.99Z</time></trkpt><trkpt lat="36.7806357" lon="14.5322917"><ele>5.0</ele><time>2026-03-23T17:02:40.042Z</time></trkpt><trkpt lat="36.780634" lon="14.5323713"><ele>5.0</ele><time>2026-03-23T17:02:45.991Z</time></trkpt><trkpt lat="36.7806305" lon="14.5324558"><ele>5.0</ele><time>2026-03-23T17:02:52.99Z</time></trkpt><trkpt lat="36.7806176" lon="14.5325456"><ele>5.285714285714286</ele><time>2026-03-23T17:02:59.966Z</time></trkpt><trkpt lat="36.7806005" lon="14.5326217"><ele>5.571428571428571</ele><time>2026-03-23T17:03:08.991Z</time></trkpt><trkpt lat="36.7805992" lon="14.5327159"><ele>5.857142857142858</ele><time>2026-03-23T17:03:14.989Z</time></trkpt><trkpt lat="36.7806019" lon="14.5328007"><ele>6.142857142857142</ele><time>2026-03-23T17:03:22.006Z</time></trkpt><trkpt lat="36.780598" lon="14.5328881"><ele>6.428571428571429</ele><time>2026-03-23T17:03:27.911Z</time></trkpt><trkpt lat="36.7805965" lon="14.5329718"><ele>6.714285714285714</ele><time>2026-03-23T17:03:35.014Z</time></trkpt><trkpt lat="36.780597" lon="14.5330519"><ele>7.0</ele><time>2026-03-23T17:03:40.99Z</time></trkpt><trkpt lat="36.7806" lon="14.5331374"><ele>7.142857142857142</ele><time>2026-03-23T17:03:47.991Z</time></trkpt><trkpt lat="36.7805894" lon="14.5332245"><ele>7.285714285714286</ele><time>2026-03-23T17:03:59.975Z</time></trkpt><trkpt lat="36.7805977" lon="14.5333121"><ele>7.428571428571429</ele><time>2026-03-23T17:04:07.989Z</time></trkpt><trkpt lat="36.7806056" lon="14.5334019"><ele>7.571428571428571</ele><time>2026-03-23T17:04:14.99Z</time></trkpt><trkpt lat="36.7806177" lon="14.533484"><ele>7.7142857142857135</ele><time>2026-03-23T17:04:21.99Z</time></trkpt><trkpt lat="36.7806256" lon="14.5335729"><ele>7.857142857142857</ele><time>2026-03-23T17:04:28.99Z</time></trkpt><trkpt lat="36.7806379" lon="14.5336577"><ele>8.0</ele><time>2026-03-23T17:04:35.991Z</time></trkpt><trkpt lat="36.7806411" lon="14.53374"><ele>8.142857142857142</ele><time>2026-03-23T17:04:42.991Z</time></trkpt><trkpt lat="36.7806497" lon="14.5338271"><ele>8.285714285714285</ele><time>2026-03-23T17:04:49.99Z</time></trkpt><trkpt lat="36.7806583" lon="14.5339087"><ele>8.428571428571429</ele><time>2026-03-23T17:04:55.99Z</time></trkpt><trkpt lat="36.7806601" lon="14.5339928"><ele>8.571428571428571</ele><time>2026-03-23T17:05:03.991Z</time></trkpt><trkpt lat="36.7806747" lon="14.5340735"><ele>8.714285714285715</ele><time>2026-03-23T17:05:09.991Z</time></trkpt><trkpt lat="36.7806845" lon="14.5341518"><ele>8.857142857142858</ele><time>2026-03-23T17:05:15.99Z</time></trkpt><trkpt lat="36.7807002" lon="14.5342334"><ele>9.0</ele><time>2026-03-23T17:05:23.06Z</time></trkpt><trkpt lat="36.7806935" lon="14.5343246"><ele>9.000000000000002</ele><time>2026-03-23T17:05:30.073Z</time></trkpt><trkpt lat="36.780713" lon="14.5344049"><ele>9.0</ele><time>2026-03-23T17:05:37.047Z</time></trkpt><trkpt lat="36.7807188" lon="14.5344871"><ele>9.0</ele><time>2026-03-23T17:05:44.99Z</time></trkpt><trkpt lat="36.7806935" lon="14.5345653"><ele>9.0</ele><time>2026-03-23T17:05:51.99Z</time></trkpt><trkpt lat="36.7806581" lon="14.5346319"><ele>9.0</ele><time>2026-03-23T17:05:59.991Z</time></trkpt><trkpt lat="36.7806221" lon="14.5347092"><ele>9.000000000000002</ele><time>2026-03-23T17:06:09.078Z</time></trkpt><trkpt lat="36.7806195" lon="14.5347889"><ele>9.0</ele><time>2026-03-23T17:06:16.059Z</time></trkpt><trkpt lat="36.7806368" lon="14.5348654"><ele>8.857142857142858</ele><time>2026-03-23T17:06:20.991Z</time></trkpt><trkpt lat="36.780697" lon="14.5349296"><ele>8.714285714285715</ele><time>2026-03-23T17:06:25.99Z</time></trkpt><trkpt lat="36.7807568" lon="14.5349679"><ele>8.571428571428571</ele><time>2026-03-23T17:06:29.927Z</time></trkpt><trkpt lat="36.780816" lon="14.5350162"><ele>8.428571428571429</ele><time>2026-03-23T17:06:37.045Z</time></trkpt><trkpt lat="36.7808123" lon="14.5351029"><ele>8.285714285714285</ele><time>2026-03-23T17:06:42.991Z</time></trkpt><trkpt lat="36.7808058" lon="14.5351837"><ele>8.142857142857142</ele><time>2026-03-23T17:06:49.99Z</time></trkpt><trkpt lat="36.7808" lon="14.535276"><ele>8.0</ele><time>2026-03-23T17:06:57.989Z</time></trkpt><trkpt lat="36.7808224" lon="14.5353503"><ele>7.833333333333333</ele><time>2026-03-23T17:07:08.89Z</time></trkpt><trkpt lat="36.7808588" lon="14.5354318"><ele>7.666666666666666</ele><time>2026-03-23T17:07:17.991Z</time></trkpt><trkpt lat="36.7807863" lon="14.5355218"><ele>7.5</ele><time>2026-03-23T17:07:44.99Z</time></trkpt><trkpt lat="36.7807912" lon="14.5356025"><ele>7.333333333333334</ele><time>2026-03-23T17:07:51.073Z</time></trkpt><trkpt lat="36.7807944" lon="14.5356925"><ele>7.166666666666667</ele><time>2026-03-23T17:07:58.045Z</time></trkpt><trkpt lat="36.7808133" lon="14.5357817"><ele>7.0</ele><time>2026-03-23T17:08:05.08Z</time></trkpt><trkpt lat="36.7808193" lon="14.5358634"><ele>7.0</ele><time>2026-03-23T17:08:11.057Z</time></trkpt><trkpt lat="36.7808144" lon="14.5359526"><ele>7.0</ele><time>2026-03-23T17:08:19.089Z</time></trkpt><trkpt lat="36.7808157" lon="14.5360328"><ele>7.0</ele><time>2026-03-23T17:08:26.075Z</time></trkpt><trkpt lat="36.7808186" lon="14.5361145"><ele>7.0</ele><time>2026-03-23T17:08:33.99Z</time></trkpt><trkpt lat="36.7808273" lon="14.5361936"><ele>7.0</ele><time>2026-03-23T17:08:40.125Z</time></trkpt><trkpt lat="36.7808405" lon="14.536282"><ele>7.0</ele><time>2026-03-23T17:08:47.99Z</time></trkpt><trkpt lat="36.7808412" lon="14.5363673"><ele>7.0</ele><time>2026-03-23T17:08:54.933Z</time></trkpt><trkpt lat="36.7808394" lon="14.5364539"><ele>7.0</ele><time>2026-03-23T17:09:03.045Z</time></trkpt><trkpt lat="36.7808492" lon="14.5365501"><ele>7.0</ele><time>2026-03-23T17:09:10.991Z</time></trkpt><trkpt lat="36.78087" lon="14.5366308"><ele>7.0</ele><time>2026-03-23T17:09:17.918Z</time></trkpt><trkpt lat="36.7808848" lon="14.5367154"><ele>7.0</ele><time>2026-03-23T17:09:26.064Z</time></trkpt><trkpt lat="36.7808887" lon="14.5368028"><ele>7.0</ele><time>2026-03-23T17:09:34.011Z</time></trkpt><trkpt lat="36.7808851" lon="14.536904"><ele>7.0</ele><time>2026-03-23T17:09:42.056Z</time></trkpt><trkpt lat="36.7808757" lon="14.5369876"><ele>7.0</ele><time>2026-03-23T17:09:50.074Z</time></trkpt><trkpt lat="36.7808526" lon="14.5370622"><ele>7.142857142857142</ele><time>2026-03-23T17:09:56.045Z</time></trkpt><trkpt lat="36.7808032" lon="14.5371206"><ele>7.285714285714286</ele><time>2026-03-23T17:10:02.896Z</time></trkpt><trkpt lat="36.7807646" lon="14.5371933"><ele>7.428571428571429</ele><time>2026-03-23T17:10:11.152Z</time></trkpt><trkpt lat="36.7807285" lon="14.537263"><ele>7.571428571428571</ele><time>2026-03-23T17:10:19.364Z</time></trkpt><trkpt lat="36.7807144" lon="14.5373409"><ele>7.7142857142857135</ele><time>2026-03-23T17:10:25.911Z</time></trkpt><trkpt lat="36.7807278" lon="14.5374241"><ele>7.857142857142857</ele><time>2026-03-23T17:10:35.065Z</time></trkpt><trkpt lat="36.7807437" lon="14.5375002"><ele>8.0</ele><time>2026-03-23T17:10:41.05Z</time></trkpt><trkpt lat="36.7807632" lon="14.5375843"><ele>8.0</ele><time>2026-03-23T17:10:57.045Z</time></trkpt><trkpt lat="36.7807314" lon="14.5376652"><ele>7.999999999999999</ele><time>2026-03-23T17:11:05.991Z</time></trkpt><trkpt lat="36.7807237" lon="14.5377454"><ele>8.0</ele><time>2026-03-23T17:11:11.08Z</time></trkpt><trkpt lat="36.7807031" lon="14.5378257"><ele>8.0</ele><time>2026-03-23T17:11:18.044Z</time></trkpt><trkpt lat="36.780672" lon="14.5378974"><ele>7.999999999999999</ele><time>2026-03-23T17:11:23.99Z</time></trkpt><trkpt lat="36.780658" lon="14.5379815"><ele>8.0</ele><time>2026-03-23T17:11:30.494Z</time></trkpt><trkpt lat="36.7806463" lon="14.5380626"><ele>8.0</ele><time>2026-03-23T17:11:36.991Z</time></trkpt><trkpt lat="36.7806339" lon="14.5381492"><ele>8.285714285714285</ele><time>2026-03-23T17:11:45.99Z</time></trkpt><trkpt lat="36.7805871" lon="14.5382111"><ele>8.571428571428571</ele><time>2026-03-23T17:11:53.912Z</time></trkpt><trkpt lat="36.7805617" lon="14.5382959"><ele>8.857142857142858</ele><time>2026-03-23T17:12:00.068Z</time></trkpt><trkpt lat="36.7805882" lon="14.5383894"><ele>9.142857142857142</ele><time>2026-03-23T17:12:06.068Z</time></trkpt><trkpt lat="36.7805593" lon="14.5384595"><ele>9.428571428571429</ele><time>2026-03-23T17:12:13.057Z</time></trkpt><trkpt lat="36.7805664" lon="14.5385461"><ele>9.714285714285714</ele><time>2026-03-23T17:12:20.057Z</time></trkpt><trkpt lat="36.7805518" lon="14.5386339"><ele>10.0</ele><time>2026-03-23T17:12:25.991Z</time></trkpt><trkpt lat="36.7805165" lon="14.5387051"><ele>9.857142857142858</ele><time>2026-03-23T17:13:00.989Z</time></trkpt><trkpt lat="36.7805442" lon="14.5387817"><ele>9.714285714285715</ele><time>2026-03-23T17:13:06.991Z</time></trkpt><trkpt lat="36.7805502" lon="14.5388683"><ele>9.571428571428573</ele><time>2026-03-23T17:13:12.991Z</time></trkpt><trkpt lat="36.7805615" lon="14.5389578"><ele>9.428571428571429</ele><time>2026-03-23T17:13:19.99Z</time></trkpt><trkpt lat="36.7805714" lon="14.5390431"><ele>9.285714285714286</ele><time>2026-03-23T17:13:26.99Z</time></trkpt><trkpt lat="36.7806004" lon="14.5391269"><ele>9.142857142857144</ele><time>2026-03-23T17:13:33.99Z</time></trkpt><trkpt lat="36.7806245" lon="14.5392044"><ele>9.0</ele><time>2026-03-23T17:13:39.991Z</time></trkpt><trkpt lat="36.7806673" lon="14.5392688"><ele>9.000000000000002</ele><time>2026-03-23T17:14:15.062Z</time></trkpt><trkpt lat="36.7806675" lon="14.5393554"><ele>9.0</ele><time>2026-03-23T17:14:22.053Z</time></trkpt><trkpt lat="36.7806834" lon="14.5394442"><ele>9.0</ele><time>2026-03-23T17:14:29.069Z</time></trkpt><trkpt lat="36.7807096" lon="14.5395276"><ele>9.0</ele><time>2026-03-23T17:14:35.045Z</time></trkpt><trkpt lat="36.7807386" lon="14.5396001"><ele>9.0</ele><time>2026-03-23T17:14:41.99Z</time></trkpt><trkpt lat="36.7807716" lon="14.5396749"><ele>9.000000000000002</ele><time>2026-03-23T17:14:48.047Z</time></trkpt><trkpt lat="36.7808031" lon="14.5397447"><ele>9.0</ele><time>2026-03-23T17:14:56.084Z</time></trkpt><trkpt lat="36.7808333" lon="14.539821"><ele>8.714285714285715</ele><time>2026-03-23T17:15:02.062Z</time></trkpt><trkpt lat="36.7808566" lon="14.5399104"><ele>8.428571428571429</ele><time>2026-03-23T17:15:09.111Z</time></trkpt><trkpt lat="36.7808785" lon="14.5399896"><ele>8.142857142857142</ele><time>2026-03-23T17:15:14.968Z</time></trkpt><trkpt lat="36.7809079" lon="14.5400638"><ele>7.857142857142858</ele><time>2026-03-23T17:15:21.991Z</time></trkpt><trkpt lat="36.7809345" lon="14.5401458"><ele>7.571428571428571</ele><time>2026-03-23T17:15:28.99Z</time></trkpt><trkpt lat="36.7809634" lon="14.5402225"><ele>7.285714285714286</ele><time>2026-03-23T17:15:34.972Z</time></trkpt><trkpt lat="36.7809965" lon="14.5402992"><ele>7.0</ele><time>2026-03-23T17:15:44.99Z</time></trkpt><trkpt lat="36.7810183" lon="14.5403819"><ele>7.571428571428571</ele><time>2026-03-23T17:15:52.073Z</time></trkpt><trkpt lat="36.7810486" lon="14.5404577"><ele>8.142857142857142</ele><time>2026-03-23T17:15:59.013Z</time></trkpt><trkpt lat="36.7810782" lon="14.5405343"><ele>8.714285714285715</ele><time>2026-03-23T17:16:06.039Z</time></trkpt><trkpt lat="36.7811064" lon="14.5406073"><ele>9.285714285714285</ele><time>2026-03-23T17:16:14.074Z</time></trkpt><trkpt lat="36.781136" lon="14.5406935"><ele>9.857142857142858</ele><time>2026-03-23T17:16:21.061Z</time></trkpt><trkpt lat="36.7811554" lon="14.5407752"><ele>10.428571428571429</ele><time>2026-03-23T17:16:28.078Z</time></trkpt><trkpt lat="36.7811757" lon="14.540852"><ele>11.0</ele><time>2026-03-23T17:16:35.049Z</time></trkpt><trkpt lat="36.7812075" lon="14.540931"><ele>11.0</ele><time>2026-03-23T17:16:41.99Z</time></trkpt><trkpt lat="36.7812406" lon="14.5410078"><ele>11.0</ele><time>2026-03-23T17:16:48.074Z</time></trkpt><trkpt lat="36.781274" lon="14.5410839"><ele>11.0</ele><time>2026-03-23T17:16:55.059Z</time></trkpt><trkpt lat="36.7813229" lon="14.5411515"><ele>11.0</ele><time>2026-03-23T17:17:02.078Z</time></trkpt><trkpt lat="36.7813703" lon="14.541207"><ele>11.0</ele><time>2026-03-23T17:17:08.049Z</time></trkpt><trkpt lat="36.7814194" lon="14.5412709"><ele>11.0</ele><time>2026-03-23T17:17:13.99Z</time></trkpt><trkpt lat="36.7814671" lon="14.5413351"><ele>11.0</ele><time>2026-03-23T17:17:21.99Z</time></trkpt><trkpt lat="36.7815172" lon="14.5413964"><ele>10.857142857142858</ele><time>2026-03-23T17:17:28.989Z</time></trkpt><trkpt lat="36.7815688" lon="14.5414592"><ele>10.714285714285714</ele><time>2026-03-23T17:17:34.99Z</time></trkpt><trkpt lat="36.7816135" lon="14.5415186"><ele>10.571428571428571</ele><time>2026-03-23T17:17:41.042Z</time></trkpt><trkpt lat="36.781659" lon="14.5415823"><ele>10.428571428571429</ele><time>2026-03-23T17:17:48.99Z</time></trkpt><trkpt lat="36.781713" lon="14.5416323"><ele>10.285714285714286</ele><time>2026-03-23T17:17:54.991Z</time></trkpt><trkpt lat="36.7817624" lon="14.5416961"><ele>10.142857142857142</ele><time>2026-03-23T17:18:02.074Z</time></trkpt><trkpt lat="36.7818124" lon="14.5417518"><ele>10.0</ele><time>2026-03-23T17:18:09.05Z</time></trkpt><trkpt lat="36.7818554" lon="14.541815"><ele>10.0</ele><time>2026-03-23T17:18:14.991Z</time></trkpt><trkpt lat="36.78191" lon="14.5418674"><ele>10.0</ele><time>2026-03-23T17:18:21.079Z</time></trkpt><trkpt lat="36.7819521" lon="14.5419296"><ele>10.0</ele><time>2026-03-23T17:18:29.066Z</time></trkpt><trkpt lat="36.7820035" lon="14.5419918"><ele>10.0</ele><time>2026-03-23T17:18:36.989Z</time></trkpt><trkpt lat="36.7820565" lon="14.5420472"><ele>10.0</ele><time>2026-03-23T17:18:43.061Z</time></trkpt><trkpt lat="36.7820979" lon="14.5421096"><ele>10.0</ele><time>2026-03-23T17:18:51.991Z</time></trkpt><trkpt lat="36.7821109" lon="14.5421912"><ele>10.0</ele><time>2026-03-23T17:19:09.083Z</time></trkpt><trkpt lat="36.782168" lon="14.5422403"><ele>10.0</ele><time>2026-03-23T17:19:15.067Z</time></trkpt><trkpt lat="36.782218" lon="14.542302"><ele>10.0</ele><time>2026-03-23T17:19:21.99Z</time></trkpt><trkpt lat="36.782259" lon="14.5423647"><ele>10.0</ele><time>2026-03-23T17:19:27.99Z</time></trkpt><trkpt lat="36.7822749" lon="14.5424509"><ele>10.0</ele><time>2026-03-23T17:19:34.991Z</time></trkpt><trkpt lat="36.7822771" lon="14.5425329"><ele>10.0</ele><time>2026-03-23T17:19:44.914Z</time></trkpt><trkpt lat="36.7823013" lon="14.5426133"><ele>10.0</ele><time>2026-03-23T17:19:51.989Z</time></trkpt><trkpt lat="36.7823176" lon="14.5426974"><ele>10.0</ele><time>2026-03-23T17:20:00.007Z</time></trkpt><trkpt lat="36.7823429" lon="14.5427823"><ele>10.0</ele><time>2026-03-23T17:20:08.023Z</time></trkpt><trkpt lat="36.782376" lon="14.5428677"><ele>10.0</ele><time>2026-03-23T17:20:16.044Z</time></trkpt><trkpt lat="36.7824084" lon="14.5429445"><ele>10.0</ele><time>2026-03-23T17:20:23.991Z</time></trkpt><trkpt lat="36.7824224" lon="14.5430269"><ele>10.0</ele><time>2026-03-23T17:20:31.072Z</time></trkpt><trkpt lat="36.7824461" lon="14.5431059"><ele>10.0</ele><time>2026-03-23T17:20:37.991Z</time></trkpt><trkpt lat="36.7824672" lon="14.5431824"><ele>10.0</ele><time>2026-03-23T17:20:44.989Z</time></trkpt><trkpt lat="36.7824945" lon="14.5432536"><ele>10.0</ele><time>2026-03-23T17:20:50.991Z</time></trkpt><trkpt lat="36.7825149" lon="14.5433298"><ele>9.571428571428571</ele><time>2026-03-23T17:20:56.99Z</time></trkpt><trkpt lat="36.7825402" lon="14.5434162"><ele>9.142857142857142</ele><time>2026-03-23T17:21:03.969Z</time></trkpt><trkpt lat="36.7825597" lon="14.5434958"><ele>8.714285714285715</ele><time>2026-03-23T17:21:10.991Z</time></trkpt><trkpt lat="36.7825776" lon="14.5435753"><ele>8.285714285714285</ele><time>2026-03-23T17:21:17.99Z</time></trkpt><trkpt lat="36.7825988" lon="14.5436505"><ele>7.857142857142858</ele><time>2026-03-23T17:21:24.989Z</time></trkpt><trkpt lat="36.7826134" lon="14.5437335"><ele>7.428571428571429</ele><time>2026-03-23T17:21:32.99Z</time></trkpt><trkpt lat="36.7826145" lon="14.5438266"><ele>7.0</ele><time>2026-03-23T17:21:42.991Z</time></trkpt><trkpt lat="36.7826283" lon="14.5439064"><ele>6.571428571428571</ele><time>2026-03-23T17:21:55.99Z</time></trkpt><trkpt lat="36.7826405" lon="14.5439855"><ele>6.142857142857142</ele><time>2026-03-23T17:22:03.892Z</time></trkpt><trkpt lat="36.7826537" lon="14.544075"><ele>5.714285714285714</ele><time>2026-03-23T17:22:16.99Z</time></trkpt><trkpt lat="36.7826868" lon="14.544142"><ele>5.285714285714286</ele><time>2026-03-23T17:22:24.99Z</time></trkpt><trkpt lat="36.7827207" lon="14.5442139"><ele>4.857142857142857</ele><time>2026-03-23T17:22:30.99Z</time></trkpt><trkpt lat="36.7827547" lon="14.5442906"><ele>4.428571428571429</ele><time>2026-03-23T17:22:38.052Z</time></trkpt><trkpt lat="36.7827759" lon="14.5443715"><ele>4.0</ele><time>2026-03-23T17:22:44.99Z</time></trkpt><trkpt lat="36.7828068" lon="14.5444493"><ele>5.428571428571429</ele><time>2026-03-23T17:22:52.094Z</time></trkpt><trkpt lat="36.7828198" lon="14.544536"><ele>6.857142857142857</ele><time>2026-03-23T17:23:05.989Z</time></trkpt><trkpt lat="36.7828496" lon="14.5446171"><ele>8.285714285714285</ele><time>2026-03-23T17:23:12.989Z</time></trkpt><trkpt lat="36.782863" lon="14.5447041"><ele>9.714285714285714</ele><time>2026-03-23T17:23:18.989Z</time></trkpt><trkpt lat="36.782881" lon="14.5447836"><ele>11.142857142857142</ele><time>2026-03-23T17:23:25.99Z</time></trkpt><trkpt lat="36.7828412" lon="14.5448538"><ele>12.571428571428571</ele><time>2026-03-23T17:23:41.062Z</time></trkpt><trkpt lat="36.7828611" lon="14.5449466"><ele>14.0</ele><time>2026-03-23T17:23:47.045Z</time></trkpt><trkpt lat="36.7828997" lon="14.5450132"><ele>14.0</ele><time>2026-03-23T17:23:52.988Z</time></trkpt><trkpt lat="36.7829317" lon="14.5450932"><ele>14.0</ele><time>2026-03-23T17:24:00.947Z</time></trkpt><trkpt lat="36.7829421" lon="14.5451745"><ele>14.0</ele><time>2026-03-23T17:24:08.99Z</time></trkpt><trkpt lat="36.7829565" lon="14.5452551"><ele>14.0</ele><time>2026-03-23T17:24:15.99Z</time></trkpt><trkpt lat="36.78296" lon="14.5453337"><ele>14.0</ele><time>2026-03-23T17:24:27.99Z</time></trkpt><trkpt lat="36.7829678" lon="14.5454146"><ele>14.0</ele><time>2026-03-23T17:24:34.988Z</time></trkpt><trkpt lat="36.7829678" lon="14.5454961"><ele>14.0</ele><time>2026-03-23T17:24:40.99Z</time></trkpt><trkpt lat="36.7829716" lon="14.5455823"><ele>13.857142857142858</ele><time>2026-03-23T17:24:47.989Z</time></trkpt><trkpt lat="36.7829675" lon="14.545664"><ele>13.714285714285715</ele><time>2026-03-23T17:24:54.99Z</time></trkpt><trkpt lat="36.7829692" lon="14.5457468"><ele>13.571428571428571</ele><time>2026-03-23T17:25:01.988Z</time></trkpt><trkpt lat="36.7829608" lon="14.5458376"><ele>13.428571428571429</ele><time>2026-03-23T17:25:09.007Z</time></trkpt><trkpt lat="36.7829668" lon="14.5459208"><ele>13.285714285714286</ele><time>2026-03-23T17:25:17.99Z</time></trkpt><trkpt lat="36.7829753" lon="14.5460021"><ele>13.142857142857142</ele><time>2026-03-23T17:25:24.989Z</time></trkpt><trkpt lat="36.7829777" lon="14.5460856"><ele>13.0</ele><time>2026-03-23T17:25:31.989Z</time></trkpt><trkpt lat="36.7829822" lon="14.5461722"><ele>13.0</ele><time>2026-03-23T17:25:38.99Z</time></trkpt><trkpt lat="36.7829908" lon="14.5462525"><ele>13.0</ele><time>2026-03-23T17:25:45.076Z</time></trkpt><trkpt lat="36.7829594" lon="14.5463352"><ele>13.0</ele><time>2026-03-23T17:25:55.99Z</time></trkpt><trkpt lat="36.7829644" lon="14.5464233"><ele>13.0</ele><time>2026-03-23T17:26:02.989Z</time></trkpt><trkpt lat="36.782983" lon="14.5465009"><ele>13.0</ele><time>2026-03-23T17:26:09.074Z</time></trkpt><trkpt lat="36.7829994" lon="14.5465792"><ele>13.0</ele><time>2026-03-23T17:26:15.077Z</time></trkpt><trkpt lat="36.7830111" lon="14.5466598"><ele>13.0</ele><time>2026-03-23T17:26:21.045Z</time></trkpt><trkpt lat="36.7830096" lon="14.5467601"><ele>13.0</ele><time>2026-03-23T17:26:29.078Z</time></trkpt><trkpt lat="36.7830178" lon="14.5468491"><ele>13.0</ele><time>2026-03-23T17:26:35.949Z</time></trkpt><trkpt lat="36.7830228" lon="14.5469385"><ele>13.0</ele><time>2026-03-23T17:26:43.99Z</time></trkpt><trkpt lat="36.783039" lon="14.5470323"><ele>13.0</ele><time>2026-03-23T17:26:51.99Z</time></trkpt><trkpt lat="36.7830568" lon="14.5471149"><ele>13.0</ele><time>2026-03-23T17:27:00.079Z</time></trkpt><trkpt lat="36.783061" lon="14.5472103"><ele>13.0</ele><time>2026-03-23T17:27:06.99Z</time></trkpt><trkpt lat="36.7830523" lon="14.5473045"><ele>13.0</ele><time>2026-03-23T17:27:14.99Z</time></trkpt><trkpt lat="36.7830562" lon="14.5473952"><ele>12.857142857142856</ele><time>2026-03-23T17:27:51.99Z</time></trkpt><trkpt lat="36.7830815" lon="14.54748"><ele>12.714285714285715</ele><time>2026-03-23T17:27:57.989Z</time></trkpt><trkpt lat="36.7830788" lon="14.5475726"><ele>12.571428571428571</ele><time>2026-03-23T17:28:03.99Z</time></trkpt><trkpt lat="36.7830651" lon="14.5476643"><ele>12.428571428571427</ele><time>2026-03-23T17:28:09.99Z</time></trkpt><trkpt lat="36.7830391" lon="14.5477467"><ele>12.285714285714285</ele><time>2026-03-23T17:28:15.99Z</time></trkpt><trkpt lat="36.7830254" lon="14.5478365"><ele>12.142857142857142</ele><time>2026-03-23T17:28:22.07Z</time></trkpt><trkpt lat="36.7830217" lon="14.5479168"><ele>12.0</ele><time>2026-03-23T17:28:28.087Z</time></trkpt><trkpt lat="36.7829876" lon="14.5479868"><ele>12.285714285714285</ele><time>2026-03-23T17:28:33.989Z</time></trkpt><trkpt lat="36.7829507" lon="14.548053"><ele>12.571428571428571</ele><time>2026-03-23T17:28:40.99Z</time></trkpt><trkpt lat="36.782922" lon="14.548132"><ele>12.857142857142858</ele><time>2026-03-23T17:28:47.898Z</time></trkpt><trkpt lat="36.7828953" lon="14.5482089"><ele>13.142857142857142</ele><time>2026-03-23T17:28:54.989Z</time></trkpt><trkpt lat="36.782872" lon="14.5482887"><ele>13.428571428571429</ele><time>2026-03-23T17:29:01.989Z</time></trkpt><trkpt lat="36.7828663" lon="14.5483688"><ele>13.714285714285714</ele><time>2026-03-23T17:29:07.989Z</time></trkpt><trkpt lat="36.782864" lon="14.54845"><ele>14.0</ele><time>2026-03-23T17:29:15.948Z</time></trkpt><trkpt lat="36.7828902" lon="14.548529"><ele>14.0</ele><time>2026-03-23T17:29:22.054Z</time></trkpt><trkpt lat="36.782862" lon="14.5486134"><ele>14.0</ele><time>2026-03-23T17:29:32.989Z</time></trkpt><trkpt lat="36.7828734" lon="14.5486957"><ele>14.0</ele><time>2026-03-23T17:29:38.06Z</time></trkpt><trkpt lat="36.782893" lon="14.5487748"><ele>14.0</ele><time>2026-03-23T17:29:45.989Z</time></trkpt><trkpt lat="36.782905" lon="14.5488523"><ele>14.0</ele><time>2026-03-23T17:29:53.075Z</time></trkpt><trkpt lat="36.7829265" lon="14.5489289"><ele>14.0</ele><time>2026-03-23T17:29:59.99Z</time></trkpt><trkpt lat="36.782951" lon="14.5490125"><ele>14.0</ele><time>2026-03-23T17:30:07.072Z</time></trkpt><trkpt lat="36.7829492" lon="14.5490976"><ele>13.857142857142858</ele><time>2026-03-23T17:30:13.082Z</time></trkpt><trkpt lat="36.7829266" lon="14.5491832"><ele>13.714285714285715</ele><time>2026-03-23T17:30:33.99Z</time></trkpt><trkpt lat="36.7828828" lon="14.5492489"><ele>13.571428571428571</ele><time>2026-03-23T17:30:42.072Z</time></trkpt><trkpt lat="36.7828742" lon="14.5493286"><ele>13.428571428571429</ele><time>2026-03-23T17:30:48.988Z</time></trkpt><trkpt lat="36.7828956" lon="14.5494066"><ele>13.285714285714286</ele><time>2026-03-23T17:30:54.99Z</time></trkpt><trkpt lat="36.782939" lon="14.5494783"><ele>13.142857142857142</ele><time>2026-03-23T17:30:59.989Z</time></trkpt><trkpt lat="36.7829854" lon="14.5495396"><ele>13.0</ele><time>2026-03-23T17:31:05.066Z</time></trkpt><trkpt lat="36.7830308" lon="14.5496005"><ele>12.714285714285714</ele><time>2026-03-23T17:31:10.989Z</time></trkpt><trkpt lat="36.7830485" lon="14.5496813"><ele>12.428571428571429</ele><time>2026-03-23T17:31:16.989Z</time></trkpt><trkpt lat="36.783055" lon="14.54976"><ele>12.142857142857142</ele><time>2026-03-23T17:31:23.989Z</time></trkpt><trkpt lat="36.783071" lon="14.5498425"><ele>11.857142857142858</ele><time>2026-03-23T17:31:30.071Z</time></trkpt><trkpt lat="36.7830849" lon="14.5499279"><ele>11.571428571428571</ele><time>2026-03-23T17:31:38.011Z</time></trkpt><trkpt lat="36.7831009" lon="14.5500053"><ele>11.285714285714286</ele><time>2026-03-23T17:31:43.083Z</time></trkpt><trkpt lat="36.7830768" lon="14.5500882"><ele>11.0</ele><time>2026-03-23T17:31:51.083Z</time></trkpt><trkpt lat="36.7831129" lon="14.5501663"><ele>11.0</ele><time>2026-03-23T17:31:55.99Z</time></trkpt><trkpt lat="36.7831242" lon="14.5502507"><ele>11.0</ele><time>2026-03-23T17:32:02.99Z</time></trkpt><trkpt lat="36.783135" lon="14.5503313"><ele>11.0</ele><time>2026-03-23T17:32:09.075Z</time></trkpt><trkpt lat="36.7831589" lon="14.5504136"><ele>10.0</ele><time>2026-03-23T17:32:16.075Z</time></trkpt></trkseg></trk></gpx>